Terminal Aerodrome Forecast
Issued by NWS

Home | Current Version | Previous Version | Text Only | Print | Product List | Glossary On
Versions: 1 2 3 4 5 6 7 8 9 10 11 12
000
FTUS45 KREV 260520
TAFRNO
TAF
KRNO 260520Z 2606/2706 VRB03KT P6SM SCT110 BKN200
     FM261500 19007KT P6SM SCT120 OVC180
     FM262300 26011G20KT P6SM SCT090 OVC140
     FM270400 29010KT P6SM BKN070 OVC100=

USA.gov is the U.S. government's official web portal to all federal, state and local government web resources and services.